Time;durP1;ratioP1;P1;durP2;ratioP2;P2;SDS_P1;SDS_P2;PMS_P1;PMS_P2;Temp;Humidity;BMP_temperature;BMP_pressure;BME280_temperature;BME280_humidity;BME280_pressure;Samples;Min_cycle;Max_cycle;Signal;HPM_P1;HPM_P2
2022/11/13 00:01:51;;;;;;;71.32;19.25;;;;;;;2.20;100.00;96507.28;5005272;28;20046;-71
2022/11/13 00:04:17;;;;;;;84.32;18.90;;;;;;;2.27;100.00;96501.31;4988578;28;20615;-71
2022/11/13 00:06:42;;;;;;;84.78;21.13;;;;;;;2.20;100.00;96496.09;4980386;28;20045;-71
2022/11/13 00:09:11;;;;;;;65.18;19.90;;;;;;;2.33;100.00;96505.72;4971735;28;20043;-70
2022/11/13 00:11:37;;;;;;;80.47;20.98;;;;;;;2.33;100.00;96500.53;4989218;28;20121;-69
2022/11/13 00:14:03;;;;;;;58.05;19.42;;;;;;;2.34;100.00;96502.16;4987152;28;20069;-69
2022/11/13 00:16:29;;;;;;;69.85;21.50;;;;;;;2.42;100.00;96484.59;4993113;28;20046;-70
2022/11/13 00:18:54;;;;;;;78.25;21.77;;;;;;;2.42;100.00;96489.00;4991841;28;20496;-70
2022/11/13 00:21:26;;;;;;;99.90;21.42;;;;;;;2.38;100.00;96488.56;4988375;28;20504;-70
2022/11/13 00:23:52;;;;;;;92.53;21.95;;;;;;;2.35;100.00;96482.97;4991654;28;20037;-70
2022/11/13 00:26:23;;;;;;;92.75;19.50;;;;;;;2.25;100.00;96473.72;4969364;28;20042;-70
2022/11/13 00:28:57;;;;;;;69.43;19.17;;;;;;;2.21;100.00;96477.72;4972793;28;20748;-70
2022/11/13 00:31:23;;;;;;;67.40;19.90;;;;;;;2.30;100.00;96469.75;4975225;28;20449;-70
2022/11/13 00:33:50;;;;;;;87.20;21.42;;;;;;;2.30;100.00;96480.16;4984203;28;20106;-70
2022/11/13 00:36:18;;;;;;;45.15;18.23;;;;;;;2.20;100.00;96470.91;4972292;28;20055;-71
2022/11/13 00:38:44;;;;;;;59.13;18.83;;;;;;;2.27;100.00;96463.16;4972586;28;20043;-70
2022/11/13 00:41:09;;;;;;;65.07;18.45;;;;;;;2.19;100.00;96473.72;4985720;28;20056;-71
2022/11/13 00:43:35;;;;;;;82.15;18.25;;;;;;;2.12;100.00;96468.47;4986882;28;20077;-71
2022/11/13 00:46:01;;;;;;;62.15;19.23;;;;;;;2.22;100.00;96474.13;4982261;28;20506;-71
2022/11/13 00:48:26;;;;;;;46.08;18.95;;;;;;;2.26;100.00;96466.75;5004938;28;20038;-71
2022/11/13 00:50:52;;;;;;;120.88;21.60;;;;;;;2.14;100.00;96465.69;5003027;28;20035;-71
2022/11/13 00:53:18;;;;;;;63.00;20.02;;;;;;;2.25;100.00;96463.34;4978050;28;20408;-71
2022/11/13 00:55:44;;;;;;;62.33;19.17;;;;;;;2.24;100.00;96456.56;4980797;28;20043;-71
2022/11/13 00:58:10;;;;;;;64.75;18.38;;;;;;;2.21;100.00;96456.94;4972354;28;20042;-71
2022/11/13 01:00:36;;;;;;;107.03;19.02;;;;;;;2.12;100.00;96449.50;4956367;28;20118;-71
2022/11/13 01:03:02;;;;;;;66.05;17.73;;;;;;;2.15;100.00;96457.69;4993676;28;20043;-71
2022/11/13 01:05:27;;;;;;;97.85;18.42;;;;;;;2.04;100.00;96445.25;5004973;28;20049;-70
2022/11/13 01:07:53;;;;;;;67.45;18.08;;;;;;;2.13;100.00;96444.13;4982876;28;20041;-70
2022/11/13 01:10:20;;;;;;;82.00;17.65;;;;;;;2.06;100.00;96440.69;5006703;28;20053;-70
2022/11/13 01:12:46;;;;;;;97.80;19.95;;;;;;;2.10;100.00;96439.31;4971506;28;20049;-70
2022/11/13 01:15:11;;;;;;;67.47;19.67;;;;;;;2.09;100.00;96432.50;4976938;28;20058;-70
2022/11/13 01:17:37;;;;;;;50.53;19.10;;;;;;;2.16;100.00;96428.16;4963184;28;20057;-71
2022/11/13 01:20:03;;;;;;;58.38;18.48;;;;;;;2.03;100.00;96422.91;4972435;28;20070;-71
2022/11/13 01:22:29;;;;;;;58.10;17.88;;;;;;;1.97;100.00;96434.03;4972116;28;20043;-71
2022/11/13 01:24:54;;;;;;;62.33;18.25;;;;;;;2.10;100.00;96428.94;4974688;28;20049;-71
2022/11/13 01:27:19;;;;;;;59.40;18.98;;;;;;;2.07;100.00;96413.75;4995072;28;20569;-71
2022/11/13 01:29:45;;;;;;;68.50;17.73;;;;;;;2.06;100.00;96412.13;5002583;28;20092;-71
2022/11/13 01:32:10;;;;;;;58.83;17.65;;;;;;;2.02;100.00;96416.09;5006201;28;20491;-71
2022/11/13 01:34:36;;;;;;;56.53;16.88;;;;;;;1.97;100.00;96418.47;4971946;28;20054;-71
2022/11/13 01:37:02;;;;;;;50.75;16.35;;;;;;;2.06;100.00;96407.72;4983312;28;20039;-71
2022/11/13 01:39:28;;;;;;;58.70;16.17;;;;;;;1.98;100.00;96402.69;4971583;28;20047;-71
2022/11/13 01:41:53;;;;;;;61.22;16.38;;;;;;;2.01;100.00;96393.72;4971528;28;20053;-71
2022/11/13 01:44:19;;;;;;;47.88;16.55;;;;;;;1.98;100.00;96394.09;4986123;28;20419;-71
2022/11/13 01:46:51;;;;;;;87.75;15.85;;;;;;;1.89;100.00;96391.66;4988766;28;20046;-69
2022/11/13 01:49:30;;;;;;;88.95;17.00;;;;;;;1.87;100.00;96393.66;4988186;28;20092;-69
2022/11/13 01:52:02;;;;;;;122.55;17.42;;;;;;;1.89;100.00;96386.47;4979457;28;20043;-70
2022/11/13 01:54:32;;;;;;;55.15;16.33;;;;;;;1.83;100.00;96392.44;4971899;28;20113;-69
2022/11/13 01:56:58;;;;;;;50.70;15.43;;;;;;;1.89;100.00;96381.28;4972188;28;20050;-70
2022/11/13 01:59:37;;;;;;;84.28;15.77;;;;;;;1.89;100.00;96380.50;4983788;28;20049;-70
2022/11/13 02:02:03;;;;;;;70.63;15.63;;;;;;;1.88;100.00;96384.06;5006804;28;20069;-72
2022/11/13 02:04:30;;;;;;;46.78;14.77;;;;;;;1.87;100.00;96378.09;4974942;28;20039;-71
2022/11/13 02:06:59;;;;;;;47.00;14.32;;;;;;;1.83;100.00;96382.06;4979257;28;20049;-71
2022/11/13 02:09:28;;;;;;;67.57;14.90;;;;;;;1.87;100.00;96378.09;4997395;28;20042;-71
2022/11/13 02:11:53;;;;;;;63.03;14.93;;;;;;;1.89;100.00;96381.28;4971278;28;20051;-71
2022/11/13 02:14:22;;;;;;;55.03;14.48;;;;;;;1.86;100.00;96375.69;4971707;28;20046;-70
2022/11/13 02:16:51;;;;;;;69.68;15.48;;;;;;;1.80;100.00;96372.06;4975321;28;20046;-71
2022/11/13 02:19:26;;;;;;;62.38;14.63;;;;;;;1.83;100.00;96366.50;4971492;28;20089;-69
2022/11/13 02:21:55;;;;;;;74.18;15.90;;;;;;;1.82;100.00;96375.25;4991033;28;20042;-68
2022/11/13 02:24:23;;;;;;;46.78;14.57;;;;;;;1.90;100.00;96367.31;4987689;28;20034;-68
2022/11/13 02:26:50;;;;;;;39.63;14.90;;;;;;;1.90;100.00;96356.94;4971829;28;20508;-68
2022/11/13 02:29:16;;;;;;;83.10;14.88;;;;;;;1.80;100.00;96355.72;4993506;28;20034;-68
2022/11/13 02:31:42;;;;;;;110.93;14.43;;;;;;;1.62;100.00;96353.59;4990742;28;20514;-68
2022/11/13 02:34:07;;;;;;;42.85;13.63;;;;;;;1.75;100.00;96347.69;4983311;28;20129;-68
2022/11/13 02:36:34;;;;;;;53.17;14.18;;;;;;;1.75;100.00;96348.47;4970679;28;20129;-70
2022/11/13 02:39:05;;;;;;;39.40;13.32;;;;;;;1.84;100.00;96352.53;4988977;28;20061;-70
2022/11/13 02:41:31;;;;;;;52.38;14.23;;;;;;;1.80;100.00;96346.13;4982082;28;20423;-69
2022/11/13 02:43:56;;;;;;;59.45;15.07;;;;;;;1.84;100.00;96342.16;4972045;28;20042;-68
2022/11/13 02:46:22;;;;;;;49.10;14.85;;;;;;;1.75;100.00;96338.09;4970953;28;20039;-68
2022/11/13 02:48:47;;;;;;;61.92;15.73;;;;;;;1.71;100.00;96337.69;4974077;28;20126;-68
2022/11/13 02:51:13;;;;;;;60.22;16.15;;;;;;;1.74;100.00;96331.31;4999695;28;20361;-70
2022/11/13 02:53:38;;;;;;;65.28;16.55;;;;;;;1.78;100.00;96332.53;5011116;28;20054;-68
2022/11/13 02:56:04;;;;;;;75.95;16.35;;;;;;;1.85;100.00;96317.81;4978612;28;20051;-70
2022/11/13 02:58:30;;;;;;;45.10;16.23;;;;;;;1.83;100.00;96324.97;4974528;28;20087;-70
2022/11/13 03:00:55;;;;;;;81.80;15.75;;;;;;;1.78;100.00;96321.34;4996640;28;20714;-70
2022/11/13 03:03:21;;;;;;;80.80;16.25;;;;;;;1.81;100.00;96306.19;5009517;28;20455;-70
2022/11/13 03:05:48;;;;;;;71.18;16.85;;;;;;;1.83;100.00;96306.00;4978883;28;20058;-70
2022/11/13 03:08:14;;;;;;;84.65;16.83;;;;;;;1.72;100.00;96307.34;4993541;28;20051;-70
2022/11/13 03:10:40;;;;;;;104.05;17.00;;;;;;;1.79;100.00;96297.78;5000853;28;20116;-69
2022/11/13 03:13:06;;;;;;;48.80;16.05;;;;;;;1.76;100.00;96298.19;4999401;28;20118;-69
2022/11/13 03:15:33;;;;;;;83.55;15.50;;;;;;;1.79;100.00;96297.78;4983831;28;20057;-70
2022/11/13 03:18:04;;;;;;;93.97;16.50;;;;;;;1.82;100.00;96302.59;4974156;28;20132;-70
2022/11/13 03:20:30;;;;;;;117.47;17.88;;;;;;;1.78;100.00;96301.41;4994643;28;20056;-70
2022/11/13 03:22:55;;;;;;;105.72;18.58;;;;;;;1.75;100.00;96295.78;4978286;28;20054;-69
2022/11/13 03:25:21;;;;;;;73.93;17.92;;;;;;;1.73;100.00;96298.56;4981103;28;20038;-69
2022/11/13 03:27:46;;;;;;;86.75;16.73;;;;;;;1.72;100.00;96296.97;4983480;28;20062;-70
2022/11/13 03:30:12;;;;;;;62.28;16.25;;;;;;;1.64;100.00;96299.72;4998869;28;20112;-70
2022/11/13 03:32:37;;;;;;;51.10;16.58;;;;;;;1.74;100.00;96289.81;5005201;28;20496;-71
2022/11/13 03:35:04;;;;;;;42.85;15.55;;;;;;;1.77;100.00;96289.41;4991814;28;20054;-70
2022/11/13 03:37:29;;;;;;;41.72;15.40;;;;;;;1.77;100.00;96284.22;4979189;28;20196;-70
2022/11/13 03:39:54;;;;;;;76.70;17.20;;;;;;;1.67;100.00;96263.03;4993408;28;20043;-70
2022/11/13 03:42:20;;;;;;;80.75;17.70;;;;;;;1.72;100.00;96271.00;4989122;28;20050;-71
2022/11/13 03:44:45;;;;;;;83.22;18.10;;;;;;;1.73;100.00;96262.25;4982210;28;20039;-71
2022/11/13 03:47:11;;;;;;;76.00;17.02;;;;;;;1.68;100.00;96259.41;4989044;28;20042;-71
2022/11/13 03:49:36;;;;;;;59.13;16.33;;;;;;;1.56;100.00;96254.00;4987069;28;20054;-70
2022/11/13 03:52:02;;;;;;;74.00;16.35;;;;;;;1.51;100.00;96244.19;4999996;28;20515;-71
2022/11/13 03:54:28;;;;;;;45.90;15.65;;;;;;;1.60;100.00;96244.84;4989351;28;20043;-71
2022/11/13 03:56:53;;;;;;;78.72;15.98;;;;;;;1.57;100.00;96240.03;4973487;28;20054;-70
2022/11/13 03:59:18;;;;;;;111.00;17.17;;;;;;;1.51;100.00;96233.81;4986882;28;20092;-70
2022/11/13 04:01:44;;;;;;;60.25;16.38;;;;;;;1.56;100.00;96241.03;4973563;28;20057;-71
2022/11/13 04:04:10;;;;;;;82.63;17.35;;;;;;;1.62;100.00;96247.22;4973141;28;20078;-70
2022/11/13 04:06:35;;;;;;;79.70;16.98;;;;;;;1.44;100.00;96242.56;4976451;28;20039;-70
2022/11/13 04:09:01;;;;;;;66.20;15.98;;;;;;;1.49;100.00;96240.19;4986523;28;20065;-71
2022/11/13 04:11:26;;;;;;;45.08;15.40;;;;;;;1.48;100.00;96242.00;4999687;28;20050;-70
2022/11/13 04:13:52;;;;;;;64.32;16.73;;;;;;;1.57;100.00;96242.63;5012134;28;20415;-71
2022/11/13 04:16:17;;;;;;;67.07;16.75;;;;;;;1.48;100.00;96234.22;4992818;28;20042;-70
2022/11/13 04:18:43;;;;;;;90.57;15.52;;;;;;;1.34;100.00;96248.13;5003766;28;20072;-70
2022/11/13 04:21:08;;;;;;;67.43;14.90;;;;;;;1.30;100.00;96252.09;4975678;28;20059;-71
2022/11/13 04:23:34;;;;;;;140.68;15.50;;;;;;;1.12;100.00;96250.81;4973020;28;20094;-70
2022/11/13 04:25:59;;;;;;;81.90;16.52;;;;;;;1.32;100.00;96240.53;4976173;28;20054;-70
2022/11/13 04:28:25;;;;;;;98.03;15.25;;;;;;;1.30;100.00;96236.53;4997114;28;20038;-71
2022/11/13 04:30:53;;;;;;;69.20;14.55;;;;;;;1.30;100.00;96226.16;4984906;28;20042;-70
2022/11/13 04:33:18;;;;;;;75.25;14.85;;;;;;;1.21;100.00;96234.09;4976207;28;20042;-71
2022/11/13 04:35:44;;;;;;;59.45;15.60;;;;;;;1.23;100.00;96235.69;4991275;28;20427;-69
2022/11/13 04:38:11;;;;;;;48.80;14.68;;;;;;;1.25;100.00;96233.69;5002269;28;20046;-70
2022/11/13 04:40:37;;;;;;;55.30;15.43;;;;;;;1.18;100.00;96233.69;4988835;28;20449;-70
2022/11/13 04:43:03;;;;;;;61.40;14.02;;;;;;;1.16;100.00;96226.06;4972726;28;20496;-70
2022/11/13 04:45:28;;;;;;;67.97;14.93;;;;;;;1.25;100.00;96218.97;4972218;28;20070;-70
2022/11/13 04:47:55;;;;;;;44.30;13.73;;;;;;;1.21;100.00;96218.53;4996694;28;20065;-69
2022/11/13 04:50:21;;;;;;;60.80;15.13;;;;;;;1.11;100.00;96215.50;4990466;28;20051;-70
2022/11/13 04:52:46;;;;;;;67.38;15.07;;;;;;;1.03;100.00;96210.47;4988884;28;20061;-71
2022/11/13 04:55:12;;;;;;;41.78;13.98;;;;;;;1.11;100.00;96207.72;4983835;28;20615;-70
2022/11/13 04:57:37;;;;;;;64.78;14.90;;;;;;;1.09;100.00;96214.09;4998824;28;20510;-71
2022/11/13 05:00:05;;;;;;;43.65;13.52;;;;;;;1.03;100.00;96210.47;4993758;28;20500;-71
2022/11/13 05:02:31;;;;;;;44.85;13.70;;;;;;;1.09;100.00;96217.47;4991599;28;20042;-71
2022/11/13 05:04:56;;;;;;;45.72;13.50;;;;;;;1.10;100.00;96206.09;4974080;28;20678;-71
2022/11/13 05:07:21;;;;;;;60.83;13.88;;;;;;;1.09;100.00;96206.31;4990237;28;20088;-70
2022/11/13 05:09:47;;;;;;;78.78;14.80;;;;;;;0.95;100.00;96208.00;5001666;28;20037;-70
2022/11/13 05:12:12;;;;;;;65.30;14.50;;;;;;;1.00;100.00;96208.25;5010034;28;20042;-70
2022/11/13 05:14:39;;;;;;;43.10;13.60;;;;;;;1.01;100.00;96202.88;4972647;28;20050;-70
2022/11/13 05:17:07;;;;;;;41.53;13.48;;;;;;;1.00;100.00;96205.66;4982778;28;20038;-70
2022/11/13 05:19:33;;;;;;;44.72;13.70;;;;;;;0.96;100.00;96194.91;4998597;28;20081;-70
2022/11/13 05:21:59;;;;;;;32.78;13.35;;;;;;;1.07;100.00;96196.13;4997708;28;20070;-70
2022/11/13 05:24:25;;;;;;;34.08;14.43;;;;;;;0.99;100.00;96191.09;4979153;28;20655;-70
2022/11/13 05:26:50;;;;;;;33.22;14.27;;;;;;;1.09;100.00;96188.94;4972574;28;20128;-71
2022/11/13 05:29:16;;;;;;;38.85;13.70;;;;;;;1.13;100.00;96184.97;4999175;28;20042;-70
2022/11/13 05:31:42;;;;;;;77.18;14.88;;;;;;;0.99;100.00;96188.50;4992061;28;20499;-70
2022/11/13 05:34:07;;;;;;;86.90;15.02;;;;;;;0.95;100.00;96187.28;4976109;28;20416;-70
2022/11/13 05:36:33;;;;;;;48.90;14.05;;;;;;;0.99;100.00;96178.13;4998019;28;20048;-70
2022/11/13 05:38:59;;;;;;;54.75;13.32;;;;;;;0.90;100.00;96171.53;4979091;28;20501;-69
2022/11/13 05:41:25;;;;;;;66.07;13.70;;;;;;;0.98;100.00;96166.19;4982086;28;20074;-70
2022/11/13 05:43:51;;;;;;;47.75;12.07;;;;;;;0.94;100.00;96170.16;4976398;28;20704;-70
2022/11/13 05:46:19;;;;;;;36.58;13.05;;;;;;;0.95;100.00;96162.19;4970994;28;20055;-70
2022/11/13 05:48:46;;;;;;;56.33;13.18;;;;;;;0.88;100.00;96171.72;4983297;28;20092;-70
2022/11/13 05:51:13;;;;;;;32.78;11.48;;;;;;;0.93;100.00;96158.19;4995574;28;20053;-70
2022/11/13 05:53:40;;;;;;;62.30;12.88;;;;;;;0.86;100.00;96158.97;4979307;28;20424;-71
2022/11/13 05:56:13;;;;;;;36.60;11.73;;;;;;;0.97;100.00;96154.22;4988273;28;20046;-70
2022/11/13 05:58:41;;;;;;;67.07;13.00;;;;;;;0.86;100.00;96146.00;4985181;28;20435;-69
2022/11/13 06:01:09;;;;;;;59.85;13.63;;;;;;;0.93;100.00;96142.63;4982099;28;20043;-70
2022/11/13 06:03:35;;;;;;;57.20;13.40;;;;;;;0.90;100.00;96143.81;4973550;28;20077;-70
2022/11/13 06:06:01;;;;;;;28.67;12.63;;;;;;;0.91;100.00;96144.63;4974637;28;20121;-70
2022/11/13 06:08:27;;;;;;;52.47;12.68;;;;;;;0.90;100.00;96135.25;4974427;28;20089;-70
2022/11/13 06:10:58;;;;;;;39.17;12.82;;;;;;;0.94;100.00;96133.88;5002017;28;20038;-70
2022/11/13 06:13:23;;;;;;;44.65;12.80;;;;;;;1.01;100.00;96137.28;4971920;28;20035;-70
2022/11/13 06:15:49;;;;;;;36.75;13.82;;;;;;;0.98;100.00;96145.47;4991859;28;20410;-69
2022/11/13 06:18:14;;;;;;;46.97;14.32;;;;;;;0.89;100.00;96131.03;4993122;28;20086;-70
2022/11/13 06:20:40;;;;;;;41.28;14.07;;;;;;;0.84;100.00;96124.66;4971071;28;20046;-70
2022/11/13 06:23:05;;;;;;;33.30;13.10;;;;;;;1.01;100.00;96129.50;4983824;28;20109;-70
2022/11/13 06:25:31;;;;;;;42.83;13.88;;;;;;;0.95;100.00;96119.91;4986278;28;20066;-69
2022/11/13 06:27:56;;;;;;;75.20;13.95;;;;;;;0.83;100.00;96133.44;4980358;28;20104;-69
2022/11/13 06:30:22;;;;;;;73.10;14.95;;;;;;;0.84;100.00;96129.81;4966439;28;20050;-69
2022/11/13 06:32:52;;;;;;;49.20;13.02;;;;;;;0.70;100.00;96122.97;4999303;28;20034;-69
2022/11/13 06:35:17;;;;;;;32.88;13.63;;;;;;;0.74;100.00;96108.66;4991708;28;20039;-70
2022/11/13 06:37:43;;;;;;;36.50;13.85;;;;;;;0.77;100.00;96112.66;5000062;28;20043;-71
2022/11/13 06:40:09;;;;;;;40.47;13.65;;;;;;;0.78;100.00;96115.06;4994206;28;20440;-71
2022/11/13 06:42:34;;;;;;;33.40;13.15;;;;;;;0.72;100.00;96113.25;4977663;28;20043;-69
2022/11/13 06:45:00;;;;;;;34.33;12.52;;;;;;;0.67;100.00;96107.81;4974636;28;20054;-67
2022/11/13 06:47:26;;;;;;;44.58;12.20;;;;;;;0.76;100.00;96101.50;4981044;28;20047;-68
2022/11/13 06:49:52;;;;;;;36.63;14.00;;;;;;;0.70;100.00;96097.06;4987792;28;20109;-71
2022/11/13 06:52:17;;;;;;;55.58;13.98;;;;;;;0.69;100.00;96085.91;4992964;28;20038;-69
2022/11/13 06:54:43;;;;;;;47.92;14.68;;;;;;;0.74;100.00;96095.69;5000002;28;20578;-70
2022/11/13 06:57:08;;;;;;;44.17;13.65;;;;;;;0.66;100.00;96080.31;4975009;28;20092;-69
2022/11/13 06:59:34;;;;;;;29.52;12.93;;;;;;;0.69;100.00;96065.19;5006020;28;20042;-69
2022/11/13 07:02:00;;;;;;;44.30;14.55;;;;;;;0.64;100.00;96069.34;4983796;28;20051;-72
2022/11/13 07:04:25;;;;;;;49.25;14.80;;;;;;;0.65;100.00;96068.38;4975010;28;20042;-68
2022/11/13 07:06:51;;;;;;;32.60;12.90;;;;;;;0.62;100.00;96076.53;4977919;28;20078;-68
2022/11/13 07:09:16;;;;;;;45.20;13.65;;;;;;;0.65;100.00;96070.97;4978567;28;20459;-68
2022/11/13 07:11:42;;;;;;;43.00;13.65;;;;;;;0.61;100.00;96067.16;4978238;28;20456;-69
2022/11/13 07:14:10;;;;;;;58.28;13.07;;;;;;;0.61;100.00;96062.75;4990240;28;20050;-70
2022/11/13 07:16:35;;;;;;;36.97;12.73;;;;;;;0.61;100.00;96074.94;4999472;28;20101;-70
2022/11/13 07:19:01;;;;;;;41.42;14.25;;;;;;;0.62;100.00;96063.59;4994932;28;20511;-70
2022/11/13 07:21:26;;;;;;;38.65;13.93;;;;;;;0.70;100.00;96055.63;4990370;28;20141;-68
2022/11/13 07:23:52;;;;;;;59.45;14.73;;;;;;;0.80;100.00;96035.31;4992570;28;20057;-69
2022/11/13 07:26:17;;;;;;;43.92;14.88;;;;;;;0.77;100.00;96045.28;4982457;28;20420;-68
2022/11/13 07:28:43;;;;;;;44.90;14.57;;;;;;;0.72;100.00;96048.47;4983532;28;20046;-68
2022/11/13 07:31:11;;;;;;;42.72;14.65;;;;;;;0.74;100.00;96046.47;4975105;28;20053;-69
2022/11/13 07:33:37;;;;;;;33.47;13.63;;;;;;;0.80;100.00;96060.44;4976297;28;20413;-68
2022/11/13 07:36:03;;;;;;;32.83;13.70;;;;;;;0.86;100.00;96064.84;4973012;28;20058;-69
2022/11/13 07:38:28;;;;;;;33.88;12.82;;;;;;;0.84;100.00;96072.81;4973865;28;20050;-69
2022/11/13 07:40:57;;;;;;;34.83;12.32;;;;;;;0.78;100.00;96094.31;4974020;28;20057;-70
2022/11/13 07:43:23;;;;;;;34.58;12.38;;;;;;;0.85;100.00;96084.78;4963516;28;20071;-69
2022/11/13 07:45:53;;;;;;;62.20;14.02;;;;;;;0.76;100.00;96121.41;4987419;28;20057;-69
2022/11/13 07:48:20;;;;;;;30.35;12.60;;;;;;;0.79;100.00;96101.13;4977900;28;20035;-69
2022/11/13 07:50:45;;;;;;;45.78;13.13;;;;;;;0.80;100.00;96115.66;4980314;28;20493;-69
2022/11/13 07:53:11;;;;;;;24.00;11.05;;;;;;;0.80;100.00;96113.06;4973977;28;20043;-69
2022/11/13 07:55:36;;;;;;;51.22;11.75;;;;;;;0.81;100.00;96106.91;4976111;28;20043;-68
2022/11/13 07:58:03;;;;;;;30.55;12.18;;;;;;;0.88;100.00;96104.34;4974921;28;20089;-69
2022/11/13 08:00:31;;;;;;;44.88;12.93;;;;;;;0.86;100.00;96125.25;4993184;28;20049;-68
2022/11/13 08:02:58;;;;;;;41.72;11.18;;;;;;;0.90;100.00;96122.28;4988395;28;20078;-67
2022/11/13 08:05:23;;;;;;;29.35;12.05;;;;;;;1.05;100.00;96112.59;4973585;28;20109;-69
2022/11/13 08:07:51;;;;;;;42.03;12.68;;;;;;;0.80;100.00;96100.09;4976605;28;20068;-69
2022/11/13 08:10:18;;;;;;;54.30;12.90;;;;;;;0.92;100.00;96094.38;4990071;28;20408;-68
2022/11/13 08:12:44;;;;;;;38.10;12.73;;;;;;;0.88;100.00;96082.78;4988339;28;20573;-68
2022/11/13 08:15:11;;;;;;;32.45;12.57;;;;;;;1.06;100.00;96090.03;4992214;28;20050;-67
2022/11/13 08:17:36;;;;;;;31.73;13.05;;;;;;;1.12;100.00;96089.25;4985413;28;20052;-67
2022/11/13 08:20:03;;;;;;;23.02;11.43;;;;;;;1.09;100.00;96084.47;4975433;28;20436;-67
2022/11/13 08:22:29;;;;;;;24.17;11.80;;;;;;;0.96;100.00;96074.84;4974098;28;20047;-67
2022/11/13 08:24:54;;;;;;;20.80;10.75;;;;;;;1.23;100.00;96065.34;4974287;28;20046;-68
2022/11/13 08:27:21;;;;;;;24.63;11.77;;;;;;;1.23;100.00;96065.34;4974361;28;20058;-67
2022/11/13 08:29:48;;;;;;;26.33;11.75;;;;;;;1.46;100.00;96070.19;4989544;28;20035;-68
2022/11/13 08:32:15;;;;;;;26.45;10.82;;;;;;;1.52;100.00;96074.59;4989377;28;20098;-67
2022/11/13 08:34:40;;;;;;;30.10;12.55;;;;;;;1.50;100.00;96071.38;4988981;28;20058;-67
2022/11/13 08:37:06;;;;;;;27.75;12.18;;;;;;;1.68;100.00;96057.84;4991296;28;20496;-68
2022/11/13 08:39:34;;;;;;;25.33;11.32;;;;;;;1.80;100.00;96071.00;4991218;28;20056;-68
2022/11/13 08:42:03;;;;;;;38.30;13.38;;;;;;;1.88;100.00;96063.03;4989732;28;20054;-67
2022/11/13 08:44:29;;;;;;;32.50;14.27;;;;;;;1.86;100.00;96072.00;4972743;28;20086;-67
2022/11/13 08:46:55;;;;;;;30.75;13.40;;;;;;;1.95;100.00;96067.41;4972331;28;20062;-67
2022/11/13 08:49:20;;;;;;;27.25;12.57;;;;;;;2.27;100.00;96064.97;4979924;28;20117;-67
2022/11/13 08:51:46;;;;;;;26.30;13.27;;;;;;;2.55;100.00;96052.50;4986654;28;20054;-68
2022/11/13 08:54:11;;;;;;;28.08;12.45;;;;;;;2.67;100.00;96046.69;4972796;28;20050;-68
2022/11/13 08:56:36;;;;;;;30.60;12.70;;;;;;;2.48;100.00;96051.75;4980997;28;20051;-67
2022/11/13 08:59:02;;;;;;;25.92;12.75;;;;;;;2.47;100.00;96050.16;4978286;28;20504;-67
2022/11/13 09:01:28;;;;;;;25.15;11.48;;;;;;;2.28;100.00;96056.19;4984573;28;20104;-67
2022/11/13 09:03:53;;;;;;;23.23;11.48;;;;;;;2.27;100.00;96046.78;4988646;28;20110;-67
2022/11/13 09:06:19;;;;;;;26.10;11.68;;;;;;;2.24;100.00;96046.22;4986687;28;20050;-67
2022/11/13 09:08:44;;;;;;;25.33;12.13;;;;;;;2.13;100.00;96049.44;4989872;28;20054;-67
2022/11/13 09:11:10;;;;;;;28.58;12.52;;;;;;;2.23;100.00;96056.81;4987647;28;20053;-68
2022/11/13 09:13:35;;;;;;;24.42;11.35;;;;;;;2.19;100.00;96053.81;5010999;28;20411;-68
2022/11/13 09:16:01;;;;;;;27.42;11.65;;;;;;;2.28;100.00;96056.19;4971916;28;20488;-68
2022/11/13 09:18:27;;;;;;;24.10;12.00;;;;;;;2.34;100.00;96050.19;4979582;28;20047;-69
2022/11/13 09:20:54;;;;;;;26.63;11.40;;;;;;;2.37;100.00;96058.38;4991083;28;20050;-68
2022/11/13 09:23:20;;;;;;;27.85;13.32;;;;;;;2.55;100.00;96057.72;4981687;28;20093;-68
2022/11/13 09:25:46;;;;;;;26.88;12.65;;;;;;;2.57;100.00;96055.72;4982701;28;20039;-71
2022/11/13 09:28:12;;;;;;;27.58;11.85;;;;;;;2.32;100.00;96044.41;4971795;28;20113;-69
2022/11/13 09:30:38;;;;;;;28.25;12.95;;;;;;;2.55;100.00;96042.13;4973514;28;20042;-68
2022/11/13 09:33:05;;;;;;;31.40;13.02;;;;;;;2.53;100.00;96023.34;4991000;28;20420;-69
2022/11/13 09:35:34;;;;;;;31.80;12.25;;;;;;;2.64;100.00;96039.31;4985369;28;20146;-68
2022/11/13 09:38:09;;;;;;;29.40;12.85;;;;;;;2.65;100.00;96043.50;4991103;28;20066;-68
2022/11/13 09:40:54;;;;;;;;;;;;;;;2.87;100.00;96037.00;4987084;28;20047;-68
2022/11/13 09:43:33;;;;;;;25.92;10.90;;;;;;;2.50;100.00;96036.75;4977956;28;19922;-68
2022/11/13 09:46:16;;;;;;;26.98;12.48;;;;;;;2.82;100.00;96026.44;4976820;28;20558;-68
2022/11/13 09:48:53;;;;;;;27.92;13.38;;;;;;;2.99;100.00;96031.13;4990098;28;20046;-68
2022/11/13 09:51:31;;;;;;;26.65;12.60;;;;;;;2.91;100.00;96030.38;4985937;28;20093;-68
2022/11/13 09:54:01;;;;;;;27.73;12.60;;;;;;;2.83;100.00;96016.81;4971493;28;20416;-68
2022/11/13 09:56:37;;;;;;;32.70;13.18;;;;;;;3.14;100.00;96008.25;4985736;28;20034;-68
2022/11/13 09:59:46;;;;;;;28.92;13.50;;;;;;;3.15;100.00;96009.03;4990762;28;20054;-68
2022/11/13 10:02:29;;;;;;;26.95;12.27;;;;;;;2.98;100.00;96013.97;4893346;29;20076;-68
2022/11/13 10:05:27;;;;;;;27.60;13.10;;;;;;;3.26;100.00;96013.56;4975873;28;20500;-68
2022/11/13 10:07:58;;;;;;;26.70;13.05;;;;;;;3.12;100.00;96012.88;4969597;28;20717;-69
2022/11/13 10:10:48;;;;;;;27.88;12.80;;;;;;;3.26;100.00;96011.78;4971764;28;20051;-67
2022/11/13 10:13:20;;;;;;;26.98;12.88;;;;;;;3.38;100.00;96008.50;4983105;28;20043;-68
2022/11/13 10:15:50;;;;;;;25.60;12.50;;;;;;;3.52;100.00;95998.78;4977026;28;20038;-69
2022/11/13 10:18:25;;;;;;;27.05;12.48;;;;;;;3.63;100.00;95979.88;4990774;28;20049;-68
2022/11/13 10:20:56;;;;;;;29.35;13.57;;;;;;;3.72;100.00;95988.22;4977798;28;20056;-69
2022/11/13 10:23:34;;;;;;;26.75;13.48;;;;;;;3.52;100.00;95984.00;4975053;28;20079;-69
2022/11/13 10:26:13;;;;;;;26.90;13.50;;;;;;;3.43;100.00;95985.25;4974219;28;20042;-68
2022/11/13 10:28:40;;;;;;;26.85;13.07;;;;;;;3.51;100.00;95977.19;4978575;28;20662;-69
2022/11/13 10:31:10;;;;;;;26.98;12.52;;;;;;;3.32;100.00;95978.13;4975028;28;20043;-68
2022/11/13 10:33:35;;;;;;;29.35;13.50;;;;;;;3.68;100.00;95976.63;4972167;28;20077;-68
2022/11/13 10:36:13;;;;;;;30.58;14.07;;;;;;;3.82;100.00;95985.91;4987912;28;20042;-69
2022/11/13 10:38:43;;;;;;;28.17;13.63;;;;;;;3.87;100.00;95980.88;4990460;28;20086;-69
2022/11/13 10:41:17;;;;;;;26.92;13.93;;;;;;;3.92;100.00;95962.00;4987804;28;20495;-69
2022/11/13 10:44:05;;;;;;;27.60;12.63;;;;;;;3.93;100.00;95958.38;4979487;28;20078;-69
2022/11/13 10:46:31;;;;;;;28.38;13.02;;;;;;;4.06;100.00;95955.63;4971669;28;20106;-69
2022/11/13 10:49:09;;;;;;;27.50;13.05;;;;;;;4.22;100.00;95946.44;4974678;28;20075;-69
2022/11/13 10:51:35;;;;;;;27.17;13.55;;;;;;;4.26;100.00;95941.59;4981710;28;20035;-69
2022/11/13 10:54:25;;;;;;;27.33;12.40;;;;;;;4.05;100.00;95940.22;4994552;28;20062;-67
2022/11/13 10:57:17;;;;;;;25.58;13.30;;;;;;;3.89;100.00;95937.19;4982925;28;20047;-68
2022/11/13 10:59:44;;;;;;;28.00;12.90;;;;;;;4.21;100.00;95931.84;4975916;28;20050;-69
2022/11/13 11:02:16;;;;;;;26.40;13.55;;;;;;;4.38;100.00;95923.44;4955012;28;20058;-69
2022/11/13 11:04:41;;;;;;;27.90;13.57;;;;;;;4.45;100.00;95924.13;4979276;28;20081;-69
2022/11/13 11:07:19;;;;;;;25.80;12.75;;;;;;;4.57;100.00;95917.19;4991462;28;20127;-69
2022/11/13 11:09:46;;;;;;;24.23;12.00;;;;;;;4.47;100.00;95916.91;4976171;28;20057;-69
2022/11/13 11:12:25;;;;;;;26.08;12.98;;;;;;;4.65;100.00;95903.03;4987311;28;20053;-70
2022/11/13 11:14:57;;;;;;;22.65;12.25;;;;;;;4.37;100.00;95908.78;4975299;28;20062;-69
2022/11/13 11:17:28;;;;;;;23.55;12.60;;;;;;;5.30;100.00;95897.06;4974375;28;20062;-69
2022/11/13 11:20:22;;;;;;;27.42;13.10;;;;;;;6.81;100.00;95902.44;4996405;28;20682;-74